Time;durP1;ratioP1;P1;durP2;ratioP2;P2;SDS_P1;SDS_P2;PMS_P1;PMS_P2;Temp;Humidity;BMP_temperature;BMP_pressure;BME280_temperature;BME280_humidity;BME280_pressure;Samples;Min_cycle;Max_cycle;Signal;HPM_P1;HPM_P2
2022/01/11 00:00:57;;;;;;;;;;;;;;;-0.07;78.36;96733.38;10291101;28;96877;-73
2022/01/11 00:06:08;;;;;;;;;;;;;;;-0.04;78.60;96734.97;10295576;28;97074;-73
2022/01/11 00:11:12;;;;;;;;;;;;;;;-0.03;77.70;96732.34;10293707;28;102410;-73
2022/01/11 00:16:14;;;;;;;;;;;;;;;-0.06;79.01;96740.19;10292040;28;96916;-73
2022/01/11 00:21:17;;;;;;;;;;;;;;;-0.10;78.37;96748.94;10292583;28;97277;-73
2022/01/11 00:26:21;;;;;;;;;;;;;;;-0.10;78.61;96759.19;10292941;28;96763;-73
2022/01/11 00:31:24;;;;;;;;;;;;;;;-0.12;79.67;96750.75;10292978;28;96807;-73
2022/01/11 00:36:40;;;;;;;;;;;;;;;-0.18;79.68;96757.00;10291265;28;96901;-73
2022/01/11 00:41:44;;;;;;;;;;;;;;;-0.17;79.48;96747.53;10296454;28;96762;-73
2022/01/11 00:46:47;;;;;;;;;;;;;;;-0.19;79.79;96754.50;10292352;28;96938;-73
2022/01/11 00:51:49;;;;;;;;;;;;;;;-0.23;80.22;96758.94;10289424;28;96870;-73
2022/01/11 00:56:53;;;;;;;;;;;;;;;-0.23;79.65;96753.81;10296033;28;96983;-73
2022/01/11 01:01:56;;;;;;;;;;;;;;;-0.21;79.54;96761.44;10299975;28;96924;-73
2022/01/11 01:06:59;;;;;;;;;;;;;;;-0.23;79.69;96758.09;10295830;28;97007;-73
2022/01/11 01:12:03;;;;;;;;;;;;;;;-0.23;80.09;96760.66;10300616;28;99059;-73
2022/01/11 01:17:06;;;;;;;;;;;;;;;-0.20;80.44;96760.53;10298824;28;97907;-73
2022/01/11 01:22:08;;;;;;;;;;;;;;;-0.20;80.29;96757.94;10298250;28;96853;-73
2022/01/11 01:27:12;;;;;;;;;;;;;;;-0.19;79.68;96767.34;10298966;28;96930;-73
2022/01/11 01:32:15;;;;;;;;;;;;;;;-0.16;79.07;96773.16;10298351;28;97012;-73
2022/01/11 01:37:17;;;;;;;;;;;;;;;-0.08;79.63;96772.81;10299001;28;97403;-73
2022/01/11 01:42:24;;;;;;;;;;;;;;;-0.04;80.23;96776.91;10312768;28;97231;-73
2022/01/11 01:47:27;;;;;;;;;;;;;;;-0.07;79.84;96774.47;10299723;28;96941;-73
2022/01/11 01:52:30;;;;;;;;;;;;;;;-0.09;79.23;96781.44;10298052;28;96913;-73
2022/01/11 01:57:34;;;;;;;;;;;;;;;-0.10;79.94;96784.06;10294105;28;96910;-74
2022/01/11 02:02:37;;;;;;;;;;;;;;;-0.12;78.03;96771.28;10300321;28;97064;-73
2022/01/11 02:07:40;;;;;;;;;;;;;;;-0.08;79.81;96777.94;10281852;28;97195;-74
2022/01/11 02:12:44;;;;;;;;;;;;;;;-0.05;80.03;96776.97;10293655;28;98200;-74
2022/01/11 02:17:47;;;;;;;;;;;;;;;-0.05;80.31;96788.09;10295490;28;97044;-74
2022/01/11 02:22:51;;;;;;;;;;;;;;;-0.10;79.18;96795.16;10298684;28;97020;-73
2022/01/11 02:27:53;;;;;;;;;;;;;;;-0.10;78.66;96787.47;10296867;28;96764;-74
2022/01/11 02:32:56;;;;;;;;;;;;;;;-0.12;79.57;96791.84;10294941;28;96904;-73
2022/01/11 02:38:00;;;;;;;;;;;;;;;-0.18;79.06;96781.81;10296671;28;96918;-73
2022/01/11 02:43:03;;;;;;;;;;;;;;;-0.25;77.63;96783.84;10296041;28;96962;-73
2022/01/11 02:48:06;;;;;;;;;;;;;;;-0.20;76.21;96784.47;10292490;28;97096;-73
2022/01/11 02:53:10;;;;;;;;;;;;;;;-0.10;78.40;96786.63;10297951;28;96806;-73
2022/01/11 02:58:13;;;;;;;;;;;;;;;-0.05;75.85;96785.50;10296199;28;96931;-74
2022/01/11 03:03:17;;;;;;;;;;;;;;;0.08;79.76;96790.09;10289561;28;97223;-74
2022/01/11 03:08:22;;;;;;;;;;;;;;;0.08;78.34;96790.09;10290448;28;97041;-74
2022/01/11 03:13:25;;;;;;;;;;;;;;;0.06;75.62;96785.03;10295505;28;96851;-74
2022/01/11 03:18:27;;;;;;;;;;;;;;;0.09;78.30;96781.50;10292432;28;96793;-74
2022/01/11 03:23:32;;;;;;;;;;;;;;;0.10;78.48;96776.28;10296732;28;96796;-74
2022/01/11 03:28:35;;;;;;;;;;;;;;;0.09;78.96;96773.78;10295638;28;96915;-75
2022/01/11 03:33:37;;;;;;;;;;;;;;;0.09;78.58;96786.63;10293296;28;97087;-73
2022/01/11 03:38:41;;;;;;;;;;;;;;;0.10;77.98;96785.72;10294162;28;101399;-74
2022/01/11 03:43:44;;;;;;;;;;;;;;;0.12;78.79;96779.63;10294570;28;97094;-74
2022/01/11 03:48:47;;;;;;;;;;;;;;;0.15;79.75;96788.91;10293795;28;97662;-74
2022/01/11 03:53:55;;;;;;;;;;;;;;;0.13;79.68;96790.72;10275724;28;97227;-74
2022/01/11 03:59:00;;;;;;;;;;;;;;;0.04;78.65;96792.78;10294492;28;96869;-74
2022/01/11 04:04:05;;;;;;;;;;;;;;;-0.02;78.27;96793.09;10302255;28;96929;-74
2022/01/11 04:09:11;;;;;;;;;;;;;;;0.00;79.72;96798.97;10290293;28;96876;-73
2022/01/11 04:14:14;;;;;;;;;;;;;;;-0.02;79.50;96798.22;10297239;28;96886;-74
2022/01/11 04:19:16;;;;;;;;;;;;;;;-0.05;75.48;96789.81;10293517;28;96839;-74
2022/01/11 04:24:20;;;;;;;;;;;;;;;0.03;79.42;96796.28;10289333;28;96875;-74
2022/01/11 04:29:23;;;;;;;;;;;;;;;0.05;79.57;96801.34;10295057;28;99860;-74
2022/01/11 04:34:27;;;;;;;;;;;;;;;0.02;78.72;96810.00;10302025;28;96865;-74
2022/01/11 04:39:31;;;;;;;;;;;;;;;-0.00;78.07;96805.88;10303861;28;96782;-74
2022/01/11 04:44:34;;;;;;;;;;;;;;;0.07;79.25;96806.44;10309046;28;96755;-74
2022/01/11 04:49:36;;;;;;;;;;;;;;;0.08;78.76;96810.66;10305900;28;97166;-73
2022/01/11 04:54:40;;;;;;;;;;;;;;;0.04;79.17;96800.50;10305079;28;96994;-74
2022/01/11 04:59:43;;;;;;;;;;;;;;;0.04;77.94;96807.38;10306178;28;99809;-74
2022/01/11 05:04:46;;;;;;;;;;;;;;;0.09;77.20;96810.56;10306356;28;97011;-74
2022/01/11 05:09:51;;;;;;;;;;;;;;;0.16;79.06;96806.00;10305933;28;97102;-74
2022/01/11 05:14:54;;;;;;;;;;;;;;;0.18;78.77;96804.19;10304036;28;96729;-74
2022/01/11 05:19:56;;;;;;;;;;;;;;;0.21;77.92;96804.06;10306183;28;99838;-74
2022/01/11 05:25:01;;;;;;;;;;;;;;;0.31;79.66;96809.63;10306494;28;97926;-74
2022/01/11 05:30:04;;;;;;;;;;;;;;;0.29;79.02;96812.25;10302656;28;97024;-74
2022/01/11 05:35:07;;;;;;;;;;;;;;;0.33;80.33;96811.19;10308016;28;96830;-74
2022/01/11 05:40:12;;;;;;;;;;;;;;;0.35;79.52;96817.09;10304649;28;97027;-74
2022/01/11 05:45:15;;;;;;;;;;;;;;;0.33;79.56;96818.91;10297095;28;98082;-73
2022/01/11 05:50:18;;;;;;;;;;;;;;;0.33;79.53;96813.75;10293262;28;96924;-74
2022/01/11 05:55:22;;;;;;;;;;;;;;;0.33;79.07;96816.34;10298835;28;97723;-73
2022/01/11 06:00:25;;;;;;;;;;;;;;;0.33;78.28;96824.03;10294308;28;96968;-74
2022/01/11 06:05:27;;;;;;;;;;;;;;;0.34;78.66;96825.72;10299188;28;99511;-74
2022/01/11 06:10:32;;;;;;;;;;;;;;;0.41;79.46;96829.69;10296821;28;96825;-74
2022/01/11 06:15:35;;;;;;;;;;;;;;;0.37;79.04;96840.97;10295488;28;98099;-74
2022/01/11 06:20:38;;;;;;;;;;;;;;;0.38;79.29;96846.97;10297691;28;96880;-74
2022/01/11 06:25:42;;;;;;;;;;;;;;;0.33;76.79;96839.47;10296512;28;98112;-74
2022/01/11 06:30:45;;;;;;;;;;;;;;;0.33;79.27;96839.47;10296294;28;96936;-74
2022/01/11 06:35:48;;;;;;;;;;;;;;;0.33;75.53;96854.06;10292784;28;97901;-74
2022/01/11 06:40:52;;;;;;;;;;;;;;;0.40;79.99;96856.28;10292971;28;96832;-74
2022/01/11 06:45:55;;;;;;;;;;;;;;;0.42;79.54;96854.47;10289711;28;97315;-74
2022/01/11 06:50:57;;;;;;;;;;;;;;;0.41;79.19;96846.81;10289894;28;96906;-74
2022/01/11 06:56:01;;;;;;;;;;;;;;;0.39;80.20;96849.47;10298556;28;96937;-74
2022/01/11 07:01:05;;;;;;;;;;;;;;;0.38;79.47;96862.41;10294582;28;96936;-74
2022/01/11 07:06:08;;;;;;;;;;;;;;;0.38;79.96;96868.38;10294339;28;96811;-74
2022/01/11 07:11:13;;;;;;;;;;;;;;;0.41;80.50;96870.81;10298200;28;96879;-74
2022/01/11 07:16:17;;;;;;;;;;;;;;;0.37;78.83;96876.97;10294159;28;97179;-74
2022/01/11 07:21:20;;;;;;;;;;;;;;;0.38;79.65;96888.94;10290985;28;98012;-74
2022/01/11 07:26:23;;;;;;;;;;;;;;;0.41;79.05;96899.06;10297795;28;96910;-74
2022/01/11 07:31:27;;;;;;;;;;;;;;;0.37;78.89;96907.81;10295044;28;96943;-74
2022/01/11 07:36:29;;;;;;;;;;;;;;;0.36;78.91;96910.47;10292585;28;96813;-73
2022/01/11 07:41:33;;;;;;;;;;;;;;;0.36;79.42;96900.19;10295588;28;96781;-74
2022/01/11 07:46:36;;;;;;;;;;;;;;;0.32;78.82;96908.94;10294806;28;97018;-74
2022/01/11 07:51:39;;;;;;;;;;;;;;;0.34;78.36;96913.09;10292027;28;96874;-74
2022/01/11 07:56:43;;;;;;;;;;;;;;;0.34;78.17;96925.97;10292873;28;96940;-74
2022/01/11 08:01:46;;;;;;;;;;;;;;;0.40;79.36;96928.25;10293805;28;99247;-74
2022/01/11 08:06:49;;;;;;;;;;;;;;;0.34;77.29;96927.69;10292717;28;97046;-74
2022/01/11 08:11:55;;;;;;;;;;;;;;;0.31;75.51;96936.38;10292259;28;98458;-74
2022/01/11 08:16:58;;;;;;;;;;;;;;;0.38;78.62;96929.22;10294411;28;96841;-74
2022/01/11 08:22:00;;;;;;;;;;;;;;;0.38;74.50;96935.19;10293175;28;97993;-74
2022/01/11 08:27:05;;;;;;;;;;;;;;;0.39;75.58;96923.16;10291377;28;96914;-74
2022/01/11 08:32:08;;;;;;;;;;;;;;;0.47;75.91;96936.53;10296012;28;99643;-74
2022/01/11 08:37:10;;;;;;;;;;;;;;;0.50;75.46;96938.13;10294796;28;96814;-74
2022/01/11 08:42:14;;;;;;;;;;;;;;;0.50;72.32;96938.97;10287996;28;96695;-74
2022/01/11 08:47:18;;;;;;;;;;;;;;;0.62;76.07;96927.28;10287957;28;96872;-74
2022/01/11 08:52:20;;;;;;;;;;;;;;;0.66;73.42;96928.81;10291938;28;96866;-74
2022/01/11 08:57:24;;;;;;;;;;;;;;;0.73;74.50;96943.06;10289504;28;96914;-74
2022/01/11 09:02:27;;;;;;;;;;;;;;;0.72;72.07;96938.84;10294756;28;96844;-74
2022/01/11 09:07:30;;;;;;;;;;;;;;;0.84;75.01;96941.72;10291900;28;97172;-74
2022/01/11 09:12:35;;;;;;;;;;;;;;;0.94;74.08;96940.41;10290181;28;96915;-74
2022/01/11 09:17:38;;;;;;;;;;;;;;;0.93;74.20;96929.28;10293535;28;97149;-73
2022/01/11 09:22:41;;;;;;;;;;;;;;;1.04;74.22;96936.50;10298264;28;97010;-74
2022/01/11 09:27:45;;;;;;;;;;;;;;;1.07;74.14;96944.09;10298469;28;96922;-74
2022/01/11 09:32:47;;;;;;;;;;;;;;;1.21;74.20;96950.28;10297104;28;96925;-74
2022/01/11 09:37:50;;;;;;;;;;;;;;;1.35;72.58;96933.28;10298491;28;96883;-74
2022/01/11 09:42:54;;;;;;;;;;;;;;;1.38;74.57;96958.03;10298617;28;96828;-74
2022/01/11 09:47:57;;;;;;;;;;;;;;;1.43;74.26;96950.94;10296419;28;96902;-74
2022/01/11 09:53:00;;;;;;;;;;;;;;;1.48;74.52;96951.53;10298917;28;97983;-74
2022/01/11 09:58:04;;;;;;;;;;;;;;;1.44;71.93;96962.91;10297847;28;97112;-74
2022/01/11 10:03:09;;;;;;;;;;;;;;;1.50;72.59;96960.03;10294861;28;96763;-74
2022/01/11 10:08:19;;;;;;;;;;;;;;;1.52;70.14;96955.66;10300514;28;97144;-73
2022/01/11 10:13:30;;;;;;;;;;;;;;;1.68;74.83;96963.47;10297835;28;99967;-74
2022/01/11 10:18:34;;;;;;;;;;;;;;;1.76;74.12;96965.66;10295245;28;96719;-74
2022/01/11 10:23:37;;;;;;;;;;;;;;;1.77;75.54;96959.59;10296899;28;97106;-74
2022/01/11 10:28:41;;;;;;;;;;;;;;;1.89;74.55;96958.16;10297068;28;97118;-74
2022/01/11 10:33:59;;;;;;;;;;;;;;;1.85;74.33;96957.50;10295131;28;96985;-74
2022/01/11 10:39:16;;;;;;;;;;;;;;;1.90;75.25;96950.38;10279560;28;96983;-74
2022/01/11 10:44:34;;;;;;;;;;;;;;;1.98;75.37;96949.16;10292404;28;97676;-74
2022/01/11 10:49:38;;;;;;;;;;;;;;;2.05;74.02;96953.91;10295877;28;97450;-74
2022/01/11 10:54:41;;;;;;;;;;;;;;;2.13;74.62;96951.78;10295522;28;96990;-74
2022/01/11 10:59:44;;;;;;;;;;;;;;;2.12;74.78;96938.97;10296303;28;97703;-74
2022/01/11 11:04:48;;;;;;;;;;;;;;;2.10;74.79;96943.38;10294282;28;97335;-74
2022/01/11 11:10:12;;;;;;;;;;;;;;;2.11;74.43;96948.44;10295210;28;99472;-74
2022/01/11 11:15:16;;;;;;;;;;;;;;;2.19;76.37;96948.03;10290550;28;97281;-75
2022/01/11 11:20:40;;;;;;;;;;;;;;;2.13;74.59;96956.94;10295527;28;96880;-74
2022/01/11 11:25:42;;;;;;;;;;;;;;;2.17;76.16;96964.50;10295605;28;97012;-74
2022/01/11 11:30:49;;;;;;;;;;;;;;;2.15;74.26;96969.75;10294940;28;96969;-74
2022/01/11 11:35:53;;;;;;;;;;;;;;;2.03;73.66;96981.50;10276390;28;96764;-74
2022/01/11 11:40:56;;;;;;;;;;;;;;;2.02;76.39;96979.00;10295421;28;96806;-74
2022/01/11 11:45:59;;;;;;;;;;;;;;;2.03;73.58;96985.81;10294733;28;96943;-74
2022/01/11 11:51:04;;;;;;;;;;;;;;;2.10;75.68;96987.19;10292602;28;97001;-74
2022/01/11 11:56:14;;;;;;;;;;;;;;;2.02;74.07;96995.28;10298082;28;96978;-74
2022/01/11 12:01:29;;;;;;;;;;;;;;;2.05;74.53;96999.47;10294339;28;96931;-74
2022/01/11 12:06:34;;;;;;;;;;;;;;;2.01;73.80;96982.47;10291235;28;96878;-74
2022/01/11 12:11:37;;;;;;;;;;;;;;;2.05;74.70;96978.84;10295391;28;96945;-74
2022/01/11 12:16:41;;;;;;;;;;;;;;;2.03;73.31;96981.50;10293089;28;97215;-74
2022/01/11 12:22:06;;;;;;;;;;;;;;;2.11;73.78;96974.22;10293144;28;97124;-74
2022/01/11 12:27:10;;;;;;;;;;;;;;;2.18;74.33;96985.06;10276589;28;96895;-74
2022/01/11 12:32:13;;;;;;;;;;;;;;;2.22;75.56;96976.25;10295969;28;96924;-74
2022/01/11 12:37:28;;;;;;;;;;;;;;;2.25;74.20;96973.53;10293033;28;96743;-74
2022/01/11 12:42:31;;;;;;;;;;;;;;;2.16;75.04;96968.81;10291132;28;97192;-73
2022/01/11 12:47:40;;;;;;;;;;;;;;;2.05;74.21;96968.53;10294010;28;96706;-74
2022/01/11 12:52:45;;;;;;;;;;;;;;;2.01;74.65;96980.75;10293485;28;96952;-73
2022/01/11 12:57:48;;;;;;;;;;;;;;;1.93;74.49;96980.28;10298923;28;96765;-73
2022/01/11 13:02:51;;;;;;;;;;;;;;;1.87;74.61;96981.44;10281665;28;96996;-73
2022/01/11 13:07:56;;;;;;;;;;;;;;;1.93;73.00;96972.56;10299737;28;96914;-73
2022/01/11 13:13:04;;;;;;;;;;;;;;;2.10;75.92;96979.44;10301724;28;97135;-74
2022/01/11 13:18:09;;;;;;;;;;;;;;;2.11;76.19;96983.69;10296903;28;96836;-74
2022/01/11 13:23:27;;;;;;;;;;;;;;;2.10;76.40;96985.44;10294901;28;96895;-73
2022/01/11 13:28:34;;;;;;;;;;;;;;;2.04;72.57;96984.91;10298482;28;96730;-73
2022/01/11 13:33:37;;;;;;;;;;;;;;;1.96;74.43;96990.44;10297941;28;96700;-73
2022/01/11 13:38:43;;;;;;;;;;;;;;;1.92;75.53;96994.06;10299374;28;96957;-74
2022/01/11 13:43:46;;;;;;;;;;;;;;;1.91;75.79;96990.66;10298254;28;96999;-73
2022/01/11 13:48:50;;;;;;;;;;;;;;;2.00;76.02;96991.94;10299229;28;96693;-74
2022/01/11 13:53:59;;;;;;;;;;;;;;;2.15;77.06;96989.50;10280857;28;96805;-74
2022/01/11 13:59:02;;;;;;;;;;;;;;;2.21;71.63;96991.78;10298338;28;96929;-74
2022/01/11 14:04:07;;;;;;;;;;;;;;;2.25;74.63;96988.13;10296857;28;96918;-73
2022/01/11 14:09:16;;;;;;;;;;;;;;;2.33;74.36;96992.91;10294039;28;96779;-74
2022/01/11 14:14:22;;;;;;;;;;;;;;;2.39;75.43;96988.28;10292426;28;98166;-73
2022/01/11 14:19:44;;;;;;;;;;;;;;;2.51;75.93;96989.38;10297532;28;96936;-73
2022/01/11 14:24:50;;;;;;;;;;;;;;;2.48;74.00;96984.41;10298331;28;96764;-73
2022/01/11 14:29:54;;;;;;;;;;;;;;;2.36;75.10;96988.44;10279905;28;96867;-73
2022/01/11 14:34:58;;;;;;;;;;;;;;;2.29;75.24;96987.91;10299376;28;101295;-73
2022/01/11 14:40:04;;;;;;;;;;;;;;;2.31;72.60;96988.66;10296009;28;96882;-74
2022/01/11 14:45:09;;;;;;;;;;;;;;;2.31;75.60;96982.69;10293453;28;97418;-73
2022/01/11 14:50:14;;;;;;;;;;;;;;;2.37;75.70;96994.41;10299370;28;96855;-73
2022/01/11 14:55:21;;;;;;;;;;;;;;;2.46;76.60;96993.97;10295659;28;102028;-73
2022/01/11 15:00:25;;;;;;;;;;;;;;;2.47;75.01;97000.75;10292199;28;97545;-73
2022/01/11 15:05:29;;;;;;;;;;;;;;;2.45;76.09;96997.44;10297954;28;98478;-73
2022/01/11 15:10:34;;;;;;;;;;;;;;;2.33;76.62;97010.97;10295180;28;97332;-73
2022/01/11 15:15:36;;;;;;;;;;;;;;;2.29;75.92;97021.44;10293940;28;96715;-73
2022/01/11 15:20:39;;;;;;;;;;;;;;;2.23;76.44;97021.75;10296051;28;97095;-73
2022/01/11 15:25:43;;;;;;;;;;;;;;;2.12;76.59;97021.44;10294496;28;97058;-73
2022/01/11 15:30:53;;;;;;;;;;;;;;;1.91;75.75;97037.03;10294389;28;98713;-73
2022/01/11 15:36:03;;;;;;;;;;;;;;;1.77;77.56;97042.03;10292617;28;96890;-73
2022/01/11 15:41:08;;;;;;;;;;;;;;;1.69;77.56;97036.41;10296270;28;96983;-73
2022/01/11 15:46:10;;;;;;;;;;;;;;;1.60;77.96;97042.00;10294266;28;96730;-73
2022/01/11 15:51:13;;;;;;;;;;;;;;;1.47;77.74;97042.59;10290995;28;96874;-73
2022/01/11 15:56:17;;;;;;;;;;;;;;;1.34;76.89;97051.78;10297572;28;96770;-73
2022/01/11 16:01:20;;;;;;;;;;;;;;;1.28;78.35;97049.47;10294265;28;97751;-73
2022/01/11 16:06:23;;;;;;;;;;;;;;;1.16;78.11;97051.72;10291264;28;96907;-73
2022/01/11 16:11:29;;;;;;;;;;;;;;;0.94;76.70;97056.16;10296663;28;96817;-73
2022/01/11 16:16:32;;;;;;;;;;;;;;;0.86;77.98;97053.09;10293683;28;97156;-73
2022/01/11 16:21:35;;;;;;;;;;;;;;;0.78;78.29;97056.03;10290216;28;96714;-73
2022/01/11 16:26:39;;;;;;;;;;;;;;;0.67;78.93;97069.34;10296015;28;96858;-73
2022/01/11 16:31:43;;;;;;;;;;;;;;;0.63;78.88;97072.94;10292147;28;97026;-74
2022/01/11 16:36:47;;;;;;;;;;;;;;;0.55;78.43;97075.84;10292890;28;97002;-73
2022/01/11 16:47:11;;;;;;;;;;;;;;;0.33;78.44;97075.09;10296286;28;96863;-73
2022/01/11 16:52:14;;;;;;;;;;;;;;;0.24;78.67;97084.03;10292244;28;96708;-73
2022/01/11 16:57:20;;;;;;;;;;;;;;;0.22;78.80;97076.38;10289539;28;96929;-72
2022/01/11 17:02:23;;;;;;;;;;;;;;;0.23;78.87;97084.91;10282592;28;96918;-72
2022/01/11 17:07:32;;;;;;;;;;;;;;;0.18;79.19;97097.09;10291167;28;97016;-73
2022/01/11 17:12:36;;;;;;;;;;;;;;;0.19;79.00;97102.19;10285906;28;96902;-72
2022/01/11 17:17:39;;;;;;;;;;;;;;;0.22;78.86;97114.09;10288355;28;96904;-72
2022/01/11 17:22:42;;;;;;;;;;;;;;;0.21;78.82;97112.41;10285412;28;96998;-72
2022/01/11 17:27:46;;;;;;;;;;;;;;;0.18;78.78;97109.97;10288016;28;97067;-73
2022/01/11 17:32:51;;;;;;;;;;;;;;;0.18;79.46;97117.66;10285709;28;96915;-72
2022/01/11 17:37:54;;;;;;;;;;;;;;;0.15;79.16;97128.06;10288944;28;96841;-72
2022/01/11 17:42:58;;;;;;;;;;;;;;;0.08;79.40;97137.78;10292386;28;96994;-73
2022/01/11 17:48:01;;;;;;;;;;;;;;;0.01;79.45;97142.31;10296030;28;97165;-73
2022/01/11 17:53:04;;;;;;;;;;;;;;;-0.06;79.63;97143.47;10298782;28;96931;-72
2022/01/11 17:58:11;;;;;;;;;;;;;;;-0.08;79.29;97149.53;10297231;28;97861;-72
2022/01/11 18:03:14;;;;;;;;;;;;;;;-0.11;78.13;97153.06;10292572;28;97100;-76
2022/01/11 18:08:18;;;;;;;;;;;;;;;-0.07;78.83;97153.78;10300363;28;97322;-74
2022/01/11 18:13:22;;;;;;;;;;;;;;;-0.06;79.35;97158.00;10296981;28;97877;-74
2022/01/11 18:18:24;;;;;;;;;;;;;;;-0.07;79.67;97158.94;10293281;28;96941;-75
2022/01/11 18:23:28;;;;;;;;;;;;;;;-0.11;79.61;97158.22;10296300;28;97257;-74
2022/01/11 18:28:32;;;;;;;;;;;;;;;-0.12;79.96;97171.09;10294124;28;97244;-75
2022/01/11 18:33:35;;;;;;;;;;;;;;;-0.12;80.00;97176.25;10289396;28;98201;-75
2022/01/11 18:38:38;;;;;;;;;;;;;;;-0.18;80.01;97180.72;10292928;28;97898;-75
2022/01/11 18:43:43;;;;;;;;;;;;;;;-0.18;79.68;97187.56;10290916;28;98032;-75
2022/01/11 18:48:45;;;;;;;;;;;;;;;-0.21;80.69;97205.69;10293690;28;96921;-75
2022/01/11 18:53:48;;;;;;;;;;;;;;;-0.26;80.24;97210.16;10292953;28;96837;-77
2022/01/11 18:58:52;;;;;;;;;;;;;;;-0.25;80.56;97211.81;10293526;28;97468;-74
2022/01/11 19:03:55;;;;;;;;;;;;;;;-0.24;80.32;97234.88;10293834;28;96829;-75
2022/01/11 19:08:58;;;;;;;;;;;;;;;-0.30;80.37;97224.84;10293337;28;97045;-75
2022/01/11 19:14:02;;;;;;;;;;;;;;;-0.29;80.50;97234.19;10296952;28;97070;-74
2022/01/11 19:19:05;;;;;;;;;;;;;;;-0.25;80.27;97237.47;10306086;28;96915;-74
2022/01/11 19:24:07;;;;;;;;;;;;;;;-0.21;81.05;97236.50;10292236;28;97035;-74
2022/01/11 19:29:12;;;;;;;;;;;;;;;-0.19;79.82;97234.69;10297779;28;97423;-75
2022/01/11 19:34:15;;;;;;;;;;;;;;;-0.14;80.20;97237.94;10293926;28;96771;-74
2022/01/11 19:39:19;;;;;;;;;;;;;;;-0.12;80.36;97238.72;10291474;28;97418;-75
2022/01/11 19:44:23;;;;;;;;;;;;;;;-0.15;79.67;97249.09;10288207;28;96893;-75
2022/01/11 19:49:26;;;;;;;;;;;;;;;-0.12;80.46;97243.84;10294005;28;97687;-74
2022/01/11 19:54:28;;;;;;;;;;;;;;;-0.14;80.05;97254.19;10291585;28;98471;-74
2022/01/11 19:59:32;;;;;;;;;;;;;;;-0.12;80.75;97254.13;10295176;28;97507;-75
2022/01/11 20:04:35;;;;;;;;;;;;;;;-0.09;80.91;97254.03;10293148;28;96796;-75
2022/01/11 20:09:41;;;;;;;;;;;;;;;-0.11;80.37;97255.81;10292399;28;97221;-74
2022/01/11 20:14:47;;;;;;;;;;;;;;;-0.25;79.14;97258.88;10293522;28;99557;-74
2022/01/11 20:19:50;;;;;;;;;;;;;;;-0.34;79.31;97249.78;10294624;28;97199;-74
2022/01/11 20:30:17;;;;;;;;;;;;;;;-0.50;79.39;97261.50;10238693;28;96791;-74
2022/01/11 20:35:20;;;;;;;;;;;;;;;-0.59;79.04;97270.34;10241410;28;97730;-74
2022/01/11 20:40:23;;;;;;;;;;;;;;;-0.64;78.59;97256.84;10238506;28;101515;-74
2022/01/11 20:45:28;;;;;;;;;;;;;;;-0.66;78.01;97268.06;10237741;28;97100;-75
2022/01/11 20:50:35;;;;;;;;;;;;;;;-0.66;79.89;97263.75;10242118;28;96883;-75
2022/01/11 20:55:38;;;;;;;;;;;;;;;-0.74;78.69;97281.97;10237800;28;97023;-75
2022/01/11 21:00:43;;;;;;;;;;;;;;;-0.67;80.43;97268.94;10239335;28;97296;-75
2022/01/11 21:05:48;;;;;;;;;;;;;;;-0.66;80.41;97279.16;10261522;28;99800;-74
2022/01/11 21:10:51;;;;;;;;;;;;;;;-0.68;77.17;97267.25;10292339;28;96776;-74
2022/01/11 21:16:11;;;;;;;;;;;;;;;-0.65;79.36;97287.69;10295925;28;96813;-74
2022/01/11 21:21:34;;;;;;;;;;;;;;;-0.58;79.98;97292.56;10296089;28;97047;-74
2022/01/11 21:26:37;;;;;;;;;;;;;;;-0.64;75.55;97291.94;10293485;28;97359;-74
2022/01/11 21:31:41;;;;;;;;;;;;;;;-0.62;78.36;97290.16;10297531;28;97024;-75
2022/01/11 21:36:44;;;;;;;;;;;;;;;-0.65;79.35;97301.38;10299550;28;96941;-74
2022/01/11 21:41:46;;;;;;;;;;;;;;;-0.67;79.94;97303.13;10291440;28;97228;-71
2022/01/11 21:46:50;;;;;;;;;;;;;;;-0.75;79.18;97295.72;10292098;28;96852;-78
2022/01/11 21:51:53;;;;;;;;;;;;;;;-0.79;76.31;97304.41;10294857;28;96958;-72
2022/01/11 21:56:56;;;;;;;;;;;;;;;-0.83;79.11;97309.69;10295010;28;96920;-73
2022/01/11 22:02:00;;;;;;;;;;;;;;;-0.85;79.16;97307.16;10300222;28;97588;-74
2022/01/11 22:07:03;;;;;;;;;;;;;;;-0.83;76.72;97319.94;10295330;28;97172;-75
2022/01/11 22:12:10;;;;;;;;;;;;;;;-0.76;79.00;97324.81;10294513;28;97044;-74
2022/01/11 22:17:26;;;;;;;;;;;;;;;-0.73;78.99;97324.72;10300610;28;97075;-75
2022/01/11 22:22:29;;;;;;;;;;;;;;;-0.67;78.16;97335.66;10304514;28;96936;-74
2022/01/11 22:27:32;;;;;;;;;;;;;;;-0.74;76.39;97345.28;10286620;28;97320;-74
2022/01/11 22:32:37;;;;;;;;;;;;;;;-0.74;79.20;97338.44;10291144;28;96752;-74
2022/01/11 22:37:39;;;;;;;;;;;;;;;-0.78;79.36;97336.84;10292865;28;97035;-74
2022/01/11 22:42:42;;;;;;;;;;;;;;;-0.91;77.54;97340.72;10292207;28;97921;-74
2022/01/11 22:47:46;;;;;;;;;;;;;;;-1.02;78.93;97348.75;10289794;28;97926;-74
2022/01/11 22:52:49;;;;;;;;;;;;;;;-1.09;79.00;97363.50;10293217;28;97154;-74
2022/01/11 22:57:52;;;;;;;;;;;;;;;-1.12;79.43;97363.63;10284268;28;97959;-74
2022/01/11 23:02:56;;;;;;;;;;;;;;;-1.24;79.38;97360.59;10290631;28;96825;-74
2022/01/11 23:07:59;;;;;;;;;;;;;;;-1.28;79.20;97362.41;10287151;28;97102;-74
2022/01/11 23:13:11;;;;;;;;;;;;;;;-1.29;78.73;97365.88;10288891;28;97789;-74
2022/01/11 23:18:17;;;;;;;;;;;;;;;-1.32;79.03;97371.09;10292105;28;96717;-74
2022/01/11 23:23:20;;;;;;;;;;;;;;;-1.32;79.24;97371.09;10292891;28;96873;-74
2022/01/11 23:28:27;;;;;;;;;;;;;;;-1.38;79.50;97376.38;10294904;28;96888;-71
2022/01/11 23:33:31;;;;;;;;;;;;;;;-1.37;79.79;97376.34;10294823;28;96751;-73
2022/01/11 23:38:41;;;;;;;;;;;;;;;-1.38;79.48;97376.38;10295485;28;98446;-73
2022/01/11 23:43:56;;;;;;;;;;;;;;;-1.38;79.51;97371.25;10291297;28;98219;-74
2022/01/11 23:49:00;;;;;;;;;;;;;;;-1.41;79.62;97376.47;10286873;28;97070;-74
2022/01/11 23:54:03;;;;;;;;;;;;;;;-1.44;80.07;97386.84;10287437;28;98139;-74
2022/01/11 23:59:06;;;;;;;;;;;;;;;-1.49;79.50;97385.22;10288020;28;96849;-73
